createdAt,value
2019-01-04T00:01:19.088Z,-0.10
2019-01-04T00:03:48.948Z,0.00
2019-01-04T00:06:18.817Z,-0.10
2019-01-04T00:08:48.786Z,-0.10
2019-01-04T00:11:18.748Z,0.00
2019-01-04T00:13:48.590Z,-0.10
2019-01-04T00:16:18.507Z,-0.20
2019-01-04T00:18:48.482Z,-0.20
2019-01-04T00:21:18.339Z,-0.20
2019-01-04T00:23:48.268Z,-0.10
2019-01-04T00:26:18.235Z,-0.10
2019-01-04T00:28:48.107Z,-0.10
2019-01-04T00:31:17.968Z,0.00
2019-01-04T00:33:47.810Z,0.00
2019-01-04T00:36:17.679Z,0.00
2019-01-04T00:38:47.608Z,-0.10
2019-01-04T00:41:17.655Z,-0.20
2019-01-04T00:43:47.537Z,-0.10
2019-01-04T00:46:17.383Z,-0.10
2019-01-04T00:48:47.335Z,-0.10
2019-01-04T00:51:17.212Z,-0.20
2019-01-04T00:53:47.280Z,-0.10
2019-01-04T00:56:58.007Z,0.10
2019-01-04T01:00:17.516Z,0.00
2019-01-04T01:03:25.720Z,0.10
2019-01-04T01:06:35.139Z,-0.10
2019-01-04T01:09:51.027Z,0.10
2019-01-04T01:13:07.602Z,0.20
2019-01-04T01:16:15.613Z,0.10
2019-01-04T01:19:25.120Z,0.10
2019-01-04T01:22:40.535Z,0.00
2019-01-04T01:25:44.608Z,0.00
2019-01-04T01:29:04.366Z,0.10
2019-01-04T01:32:19.776Z,-0.10
2019-01-04T01:35:30.794Z,-0.20
2019-01-04T01:38:35.870Z,-0.10
2019-01-04T01:42:04.968Z,-0.30
2019-01-04T01:45:07.264Z,-0.40
2019-01-04T01:48:00.404Z,-0.40
2019-01-04T01:50:42.891Z,-0.50
2019-01-04T01:53:12.747Z,-0.50
2019-01-04T01:55:42.605Z,-0.50
2019-01-04T01:58:12.480Z,-0.50
2019-01-04T02:00:42.435Z,-0.40
2019-01-04T02:03:12.295Z,-0.30
2019-01-04T02:05:42.153Z,-0.30
2019-01-04T02:08:12.031Z,-0.20
2019-01-04T02:10:41.891Z,-0.20
2019-01-04T02:13:11.765Z,-0.20
2019-01-04T02:15:41.616Z,0.00
2019-01-04T02:18:11.487Z,-0.10
2019-01-04T02:20:41.344Z,-0.10
2019-01-04T02:23:11.315Z,-0.10
2019-01-04T02:25:41.173Z,-0.20
2019-01-04T02:28:11.068Z,-0.20
2019-01-04T02:30:41.037Z,-0.10
2019-01-04T02:33:10.871Z,0.00
2019-01-04T02:35:40.733Z,-0.10
2019-01-04T02:38:10.604Z,-0.10
2019-01-04T02:40:40.480Z,-0.20
2019-01-04T02:43:10.421Z,-0.10
2019-01-04T02:45:40.287Z,-0.10
2019-01-04T02:48:10.159Z,-0.10
2019-01-04T02:50:40.122Z,-0.10
2019-01-04T02:53:09.963Z,-0.20
2019-01-04T02:55:39.803Z,0.00
2019-01-04T02:58:09.714Z,0.00
2019-01-04T03:00:39.573Z,0.10
2019-01-04T03:03:09.426Z,0.10
2019-01-04T03:05:39.264Z,0.00
2019-01-04T03:08:09.166Z,0.00
2019-01-04T03:10:39.027Z,0.00
2019-01-04T03:13:08.893Z,0.00
2019-01-04T03:15:38.889Z,-0.10
2019-01-04T03:18:08.826Z,-0.20
2019-01-04T03:20:38.688Z,-0.30
2019-01-04T03:23:08.531Z,-0.50
2019-01-04T03:25:38.416Z,-0.30
2019-01-04T03:28:08.279Z,-0.40
2019-01-04T03:30:38.244Z,-0.40
2019-01-04T03:33:08.096Z,-0.40
2019-01-04T03:35:37.924Z,-0.50
2019-01-04T03:38:07.838Z,-0.60
2019-01-04T03:40:38.107Z,-0.60
2019-01-04T03:43:08.067Z,-0.40
2019-01-04T03:45:37.937Z,-0.30
2019-01-04T03:48:07.812Z,-0.40
2019-01-04T03:50:37.765Z,-0.30
2019-01-04T03:53:07.619Z,-0.30
2019-01-04T03:55:37.493Z,-0.30
2019-01-04T03:58:07.367Z,-0.50
2019-01-04T04:00:37.220Z,-0.40
2019-01-04T04:03:07.068Z,-0.40
2019-01-04T04:05:36.904Z,-0.30
2019-01-04T04:08:06.817Z,-0.30
2019-01-04T04:10:36.652Z,-0.20
2019-01-04T04:13:06.487Z,-0.20
2019-01-04T04:15:36.379Z,-0.30
2019-01-04T04:18:06.277Z,-0.30
2019-01-04T04:20:36.131Z,-0.20
2019-01-04T04:23:05.976Z,-0.20
2019-01-04T04:25:35.856Z,-0.40
2019-01-04T04:28:05.722Z,-0.30
2019-01-04T04:30:35.583Z,-0.40
2019-01-04T04:33:05.435Z,-0.50
2019-01-04T04:35:35.262Z,-0.60
2019-01-04T04:38:05.180Z,-0.50
2019-01-04T04:40:35.037Z,-0.40
2019-01-04T04:43:04.907Z,-0.40
2019-01-04T04:45:35.005Z,-0.40
2019-01-04T04:48:04.940Z,-0.40
2019-01-04T04:50:34.805Z,-0.40
2019-01-04T04:53:04.638Z,-0.40
2019-01-04T04:55:34.483Z,-0.40
2019-01-04T04:58:04.400Z,-0.40
2019-01-04T05:00:34.255Z,-0.30
2019-01-04T05:03:04.100Z,-0.30
2019-01-04T05:05:33.935Z,-0.40
2019-01-04T05:08:03.851Z,-0.40
2019-01-04T05:10:33.708Z,-0.40
2019-01-04T05:13:03.552Z,-0.60
2019-01-04T05:15:33.393Z,-0.70
2019-01-04T05:18:03.359Z,-0.60
2019-01-04T05:20:33.232Z,-0.70
2019-01-04T05:23:03.120Z,-0.80
2019-01-04T05:25:33.075Z,-0.70
2019-01-04T05:28:03.704Z,-0.70
2019-01-04T05:30:33.547Z,-0.80
2019-01-04T05:33:03.506Z,-0.90
2019-01-04T05:35:33.518Z,-1.00
2019-01-04T05:38:03.467Z,-1.10
2019-01-04T05:40:33.307Z,-1.00
2019-01-04T05:43:03.215Z,-1.00
2019-01-04T05:45:33.235Z,-1.10
2019-01-04T05:48:03.252Z,-1.10
2019-01-04T05:50:33.099Z,-1.10
2019-01-04T05:53:02.997Z,-1.20
2019-01-04T05:55:32.882Z,-1.20
2019-01-04T05:58:02.888Z,-1.30
2019-01-04T06:00:32.759Z,-1.30
2019-01-04T06:03:02.676Z,-1.30
2019-01-04T06:05:32.587Z,-1.40
2019-01-04T06:08:02.535Z,-1.40
2019-01-04T06:10:32.458Z,-1.40
2019-01-04T06:13:02.352Z,-1.40
2019-01-04T06:15:32.211Z,-1.50
2019-01-04T06:18:02.308Z,-1.50
2019-01-04T06:20:32.199Z,-1.50
2019-01-04T06:23:02.063Z,-1.50
2019-01-04T06:25:31.957Z,-1.50
2019-01-04T06:28:01.842Z,-1.50
2019-01-04T06:30:31.756Z,-1.50
2019-01-04T06:33:01.717Z,-1.60
2019-01-04T06:35:31.734Z,-1.60
2019-01-04T06:38:01.616Z,-1.60
2019-01-04T06:40:31.724Z,-1.80
2019-01-04T06:43:01.708Z,-2.00
2019-01-04T06:45:31.978Z,-1.90
2019-01-04T06:48:02.143Z,-1.90
2019-01-04T06:50:32.190Z,-1.90
2019-01-04T06:53:02.471Z,-1.90
2019-01-04T06:55:56.490Z,-1.90
2019-01-04T06:58:26.512Z,-2.10
2019-01-04T07:00:56.651Z,-2.10
2019-01-04T07:03:26.787Z,-2.10
2019-01-04T07:05:56.684Z,-2.10
2019-01-04T07:08:27.639Z,-2.00
2019-01-04T07:10:57.891Z,-2.00
2019-01-04T07:13:27.847Z,-2.00
2019-01-04T07:15:58.372Z,-2.00
2019-01-04T07:18:28.345Z,-2.00
2019-01-04T07:20:58.194Z,-2.10
2019-01-04T07:23:28.071Z,-1.90
2019-01-04T07:25:58.088Z,-2.10
2019-01-04T07:28:28.026Z,-2.10
2019-01-04T07:30:58.026Z,-2.10
2019-01-04T07:33:28.019Z,-2.20
2019-01-04T07:35:58.040Z,-2.30
2019-01-04T07:38:27.948Z,-2.20
2019-01-04T07:40:57.885Z,-2.00
2019-01-04T07:43:27.778Z,-1.90
2019-01-04T07:45:57.691Z,-1.70
2019-01-04T07:48:27.811Z,-1.80
2019-01-04T07:50:57.752Z,-1.90
2019-01-04T07:53:27.743Z,-1.80
2019-01-04T07:55:57.622Z,-1.80
2019-01-04T07:58:27.582Z,-1.90
2019-01-04T08:00:57.453Z,-1.80
2019-01-04T08:03:27.711Z,-1.80
2019-01-04T08:06:00.239Z,-1.80
2019-01-04T08:08:30.235Z,-1.80
2019-01-04T08:11:00.116Z,-1.80
2019-01-04T08:13:30.011Z,-1.80
2019-01-04T08:15:59.899Z,-1.80
2019-01-04T08:18:30.021Z,-2.00
2019-01-04T08:20:59.923Z,-2.20
2019-01-04T08:23:29.931Z,-2.10
2019-01-04T08:25:59.868Z,-2.00
2019-01-04T08:28:29.974Z,-1.90
2019-01-04T08:30:59.852Z,-1.60
2019-01-04T08:33:29.719Z,-1.50
2019-01-04T08:35:59.574Z,-1.30
2019-01-04T08:38:29.488Z,-1.20
2019-01-04T08:40:59.431Z,-1.00
2019-01-04T08:43:29.324Z,-1.10
2019-01-04T08:45:59.771Z,-1.10
2019-01-04T08:48:30.819Z,-1.00
2019-01-04T08:51:00.699Z,-0.90
2019-01-04T08:53:59.451Z,-0.80
2019-01-04T08:56:31.682Z,-0.70
2019-01-04T08:59:01.676Z,-0.70
2019-01-04T09:01:31.617Z,-0.80
2019-01-04T09:04:01.529Z,-0.70
2019-01-04T09:06:31.427Z,-0.60
2019-01-04T09:09:01.442Z,-0.50
2019-01-04T09:11:31.354Z,-0.40
2019-01-04T09:14:01.267Z,-0.40
2019-01-04T09:16:31.307Z,-0.30
2019-01-04T09:19:01.242Z,-0.20
2019-01-04T09:21:31.292Z,-0.10
2019-01-04T09:24:01.159Z,-0.20
2019-01-04T09:26:31.051Z,-0.20
2019-01-04T09:29:00.983Z,-0.30
2019-01-04T09:31:30.874Z,-0.30
2019-01-04T09:34:00.743Z,-0.30
2019-01-04T09:36:30.598Z,-0.30
2019-01-04T09:39:03.413Z,-0.30
2019-01-04T09:41:37.523Z,-0.20
2019-01-04T09:44:07.623Z,-0.20
2019-01-04T09:46:37.846Z,0.00
2019-01-04T09:49:08.192Z,0.10
2019-01-04T09:51:38.083Z,0.30
2019-01-04T09:54:07.967Z,0.50
2019-01-04T09:56:37.979Z,0.60
2019-01-04T09:59:07.962Z,0.80
2019-01-04T10:01:37.832Z,0.90
2019-01-04T10:04:07.788Z,1.10
2019-01-04T10:06:37.697Z,1.20
2019-01-04T10:09:08.975Z,1.50
2019-01-04T10:11:38.908Z,1.60
2019-01-04T10:14:08.883Z,1.70
2019-01-04T10:16:38.763Z,1.60
2019-01-04T10:19:08.735Z,1.60
2019-01-04T10:21:38.631Z,1.60
2019-01-04T10:24:08.531Z,1.60
2019-01-04T10:26:38.482Z,1.70
2019-01-04T10:29:08.420Z,1.90
2019-01-04T10:31:38.308Z,1.90
2019-01-04T10:34:08.190Z,2.00
2019-01-04T10:36:38.109Z,1.90
2019-01-04T10:39:09.251Z,2.00
2019-01-04T10:41:39.267Z,2.10
2019-01-04T10:44:09.111Z,2.10
2019-01-04T10:46:39.031Z,2.10
2019-01-04T10:49:08.987Z,2.00
2019-01-04T10:51:39.002Z,2.10
2019-01-04T10:54:08.985Z,2.00
2019-01-04T10:56:38.862Z,2.00
2019-01-04T10:59:08.957Z,2.10
2019-01-04T11:01:38.826Z,2.30
2019-01-04T11:04:08.743Z,2.20
2019-01-04T11:06:38.681Z,2.20
2019-01-04T11:09:10.631Z,2.30
2019-01-04T11:11:40.581Z,2.30
2019-01-04T11:14:10.696Z,2.20
2019-01-04T11:16:40.712Z,2.10
2019-01-04T11:19:10.628Z,2.00
2019-01-04T11:21:40.643Z,2.00
2019-01-04T11:24:50.433Z,2.40
2019-01-04T11:27:54.360Z,3.10
2019-01-04T11:30:43.827Z,3.80
2019-01-04T11:33:40.681Z,4.00
2019-01-04T11:36:47.445Z,4.30
2019-01-04T11:40:01.516Z,4.70
2019-01-04T11:43:17.744Z,4.80
2019-01-04T11:46:12.142Z,4.80
2019-01-04T11:48:53.887Z,5.10
2019-01-04T11:52:12.903Z,5.30
2019-01-04T11:54:42.887Z,5.00
2019-01-04T11:57:12.776Z,5.10
2019-01-04T11:59:42.915Z,4.60
2019-01-04T12:02:12.800Z,4.30
2019-01-04T12:04:42.683Z,4.10
2019-01-04T12:07:12.584Z,4.40
2019-01-04T12:09:42.503Z,4.40
2019-01-04T12:12:12.385Z,4.70
2019-01-04T12:14:42.243Z,5.00
2019-01-04T12:17:12.104Z,5.00
2019-01-04T12:19:42.093Z,4.40
2019-01-04T12:22:11.994Z,4.50
2019-01-04T12:24:41.887Z,4.80
2019-01-04T12:27:11.783Z,5.70
2019-01-04T12:29:41.755Z,6.20
2019-01-04T12:32:11.636Z,6.00
2019-01-04T12:34:41.587Z,5.90
2019-01-04T12:37:11.523Z,6.30
2019-01-04T12:39:41.363Z,6.30
2019-01-04T12:42:11.441Z,6.00
2019-01-04T12:44:41.342Z,6.20
2019-01-04T12:47:11.214Z,6.80
2019-01-04T12:49:41.292Z,6.50
2019-01-04T12:52:11.227Z,6.30
2019-01-04T12:54:41.116Z,6.70
2019-01-04T12:57:11.310Z,6.70
2019-01-04T12:59:41.217Z,6.70
2019-01-04T13:02:11.997Z,7.50
2019-01-04T13:04:41.907Z,7.30
2019-01-04T13:07:11.772Z,7.20
2019-01-04T13:09:41.799Z,7.20
2019-01-04T13:12:12.365Z,8.00
2019-01-04T13:14:42.266Z,7.10
2019-01-04T13:17:12.164Z,7.00
2019-01-04T13:19:44.038Z,6.90
2019-01-04T13:22:13.911Z,6.30
2019-01-04T13:24:43.791Z,5.80
2019-01-04T13:27:13.661Z,5.50
2019-01-04T13:29:43.812Z,5.40
2019-01-04T13:32:13.716Z,5.20
2019-01-04T13:34:43.585Z,5.50
2019-01-04T13:37:13.447Z,5.40
2019-01-04T13:39:43.339Z,4.90
2019-01-04T13:42:13.319Z,4.40
2019-01-04T13:44:43.432Z,4.30
2019-01-04T13:47:13.309Z,4.60
2019-01-04T13:49:43.176Z,4.40
2019-01-04T13:52:13.320Z,4.10
2019-01-04T13:54:43.370Z,4.30
2019-01-04T13:57:13.230Z,4.40
2019-01-04T13:59:43.190Z,4.00
2019-01-04T14:02:13.170Z,4.10
2019-01-04T14:04:43.031Z,4.10
2019-01-04T14:07:12.889Z,4.10
2019-01-04T14:09:42.896Z,3.80
2019-01-04T14:12:12.866Z,3.80
2019-01-04T14:14:42.862Z,3.80
2019-01-04T14:17:12.775Z,3.60
2019-01-04T14:19:42.685Z,3.60
2019-01-04T14:22:12.664Z,3.50
2019-01-04T14:24:42.576Z,3.50
2019-01-04T14:27:12.538Z,3.50
2019-01-04T14:29:42.540Z,3.50
2019-01-04T14:32:12.459Z,3.50
2019-01-04T14:34:42.427Z,3.30
2019-01-04T14:37:12.411Z,3.30
2019-01-04T14:39:42.440Z,3.40
2019-01-04T14:42:12.612Z,3.40
2019-01-04T14:44:42.457Z,3.40
2019-01-04T14:47:12.349Z,3.40
2019-01-04T14:49:42.282Z,3.40
2019-01-04T14:52:12.223Z,3.30
2019-01-04T14:54:42.447Z,3.40
2019-01-04T14:57:12.335Z,3.30
2019-01-04T14:59:42.272Z,3.30
2019-01-04T15:02:12.121Z,3.30
2019-01-04T15:04:42.035Z,3.40
2019-01-04T15:07:11.901Z,3.30
2019-01-04T15:09:41.887Z,3.10
2019-01-04T15:12:11.847Z,2.90
2019-01-04T15:14:41.695Z,3.00
2019-01-04T15:17:11.579Z,2.90
2019-01-04T15:19:41.497Z,2.80
2019-01-04T15:22:11.403Z,2.70
2019-01-04T15:24:41.272Z,2.70
2019-01-04T15:27:11.215Z,2.40
2019-01-04T15:29:41.155Z,2.40
2019-01-04T15:32:11.064Z,2.40
2019-01-04T15:34:40.915Z,2.30
2019-01-04T15:37:10.798Z,2.20
2019-01-04T15:39:40.663Z,2.10
2019-01-04T15:42:10.540Z,2.00
2019-01-04T15:44:40.517Z,1.90
2019-01-04T15:47:10.493Z,1.80
2019-01-04T15:49:40.365Z,1.80
2019-01-04T15:52:10.279Z,1.70
2019-01-04T15:54:40.499Z,1.70
2019-01-04T15:57:10.391Z,1.60
2019-01-04T15:59:40.307Z,1.50
2019-01-04T16:02:10.177Z,1.70
2019-01-04T16:04:40.143Z,1.80
2019-01-04T16:07:10.077Z,1.80
2019-01-04T16:09:40.022Z,1.50
2019-01-04T16:12:09.904Z,1.40
2019-01-04T16:14:39.755Z,1.40
2019-01-04T16:17:12.273Z,1.40
2019-01-04T16:19:41.144Z,1.50
2019-01-04T16:22:11.075Z,1.20
2019-01-04T16:24:40.911Z,1.10
2019-01-04T16:27:10.847Z,1.10
2019-01-04T16:29:41.742Z,1.20
2019-01-04T16:32:11.639Z,1.20
2019-01-04T16:34:41.547Z,1.30
2019-01-04T16:37:11.487Z,1.30
2019-01-04T16:39:41.404Z,1.10
2019-01-04T16:42:11.279Z,1.00
2019-01-04T16:44:41.131Z,0.90
2019-01-04T16:47:10.999Z,0.90
2019-01-04T16:49:41.020Z,0.90
2019-01-04T16:52:10.976Z,1.00
2019-01-04T16:54:40.915Z,1.10
2019-01-04T16:57:10.887Z,1.00
2019-01-04T16:59:40.847Z,0.90
2019-01-04T17:02:11.415Z,1.10
2019-01-04T17:04:41.392Z,1.20
2019-01-04T17:07:11.287Z,1.30
2019-01-04T17:09:41.176Z,1.20
2019-01-04T17:12:11.143Z,1.20
2019-01-04T17:14:41.032Z,1.30
2019-01-04T17:17:10.957Z,1.00
2019-01-04T17:19:40.922Z,1.10
2019-01-04T17:22:10.847Z,1.10
2019-01-04T17:24:40.725Z,1.10
2019-01-04T17:27:10.764Z,1.00
2019-01-04T17:29:40.810Z,0.90
2019-01-04T17:32:10.738Z,1.00
2019-01-04T17:34:40.635Z,1.10
2019-01-04T17:37:10.555Z,0.90
2019-01-04T17:39:40.488Z,0.70
2019-01-04T17:42:10.391Z,0.60
2019-01-04T17:44:40.399Z,0.60
2019-01-04T17:47:10.387Z,0.80
2019-01-04T17:49:40.335Z,0.90
2019-01-04T17:52:10.289Z,0.90
2019-01-04T17:54:40.279Z,0.70
2019-01-04T17:57:10.208Z,0.70
2019-01-04T17:59:40.135Z,0.70
2019-01-04T18:02:10.128Z,0.70
2019-01-04T18:04:40.151Z,0.80
2019-01-04T18:07:10.047Z,0.60
2019-01-04T18:09:40.021Z,0.60
2019-01-04T18:12:09.993Z,0.50
2019-01-04T18:14:39.863Z,0.50
2019-01-04T18:17:10.801Z,0.60
2019-01-04T18:19:40.864Z,0.50
2019-01-04T18:22:10.755Z,0.30
2019-01-04T18:24:40.717Z,0.40
2019-01-04T18:27:10.588Z,0.30
2019-01-04T18:29:40.504Z,0.40
2019-01-04T18:32:10.498Z,0.50
2019-01-04T18:34:40.391Z,0.40
2019-01-04T18:37:10.316Z,0.50
2019-01-04T18:39:40.305Z,0.50
2019-01-04T18:42:10.151Z,0.50
2019-01-04T18:44:40.128Z,0.40
2019-01-04T18:47:10.087Z,0.50
2019-01-04T18:49:40.170Z,0.50
2019-01-04T18:52:10.186Z,0.50
2019-01-04T18:54:40.153Z,0.60
2019-01-04T18:57:10.124Z,0.60
2019-01-04T18:59:40.012Z,0.40
2019-01-04T19:02:09.903Z,0.40
2019-01-04T19:04:39.863Z,0.40
2019-01-04T19:07:09.724Z,0.40
2019-01-04T19:09:39.684Z,0.30
2019-01-04T19:12:09.544Z,0.30
2019-01-04T19:14:40.052Z,0.30
2019-01-04T19:17:09.927Z,0.40
2019-01-04T19:19:39.839Z,0.20
2019-01-04T19:22:09.720Z,0.20
2019-01-04T19:24:39.684Z,0.20
2019-01-04T19:27:09.643Z,0.10
2019-01-04T19:29:39.637Z,0.10
2019-01-04T19:32:09.519Z,0.20
2019-01-04T19:34:39.372Z,0.20
2019-01-04T19:37:09.291Z,0.30
2019-01-04T19:39:40.310Z,0.20
2019-01-04T19:42:10.166Z,0.10
2019-01-04T19:44:40.157Z,0.10
2019-01-04T19:47:10.015Z,0.00
2019-01-04T19:49:40.086Z,0.00
2019-01-04T19:52:09.971Z,-0.10
2019-01-04T19:54:39.968Z,-0.20
2019-01-04T19:57:09.897Z,-0.10
2019-01-04T19:59:39.796Z,0.00
2019-01-04T20:02:09.748Z,-0.10
2019-01-04T20:04:39.626Z,-0.20
2019-01-04T20:08:02.351Z,-0.40
2019-01-04T20:11:36.288Z,-0.40
2019-01-04T20:15:04.573Z,-0.40
2019-01-04T20:18:08.683Z,-0.30
2019-01-04T20:21:03.975Z,-0.30
2019-01-04T20:24:10.883Z,-0.20
2019-01-04T20:27:27.479Z,-0.10
2019-01-04T20:30:19.138Z,-0.10
2019-01-04T20:33:20.045Z,0.00
2019-01-04T20:36:21.149Z,0.00
2019-01-04T20:39:09.813Z,0.00
2019-01-04T20:42:04.332Z,-0.10
2019-01-04T20:44:59.616Z,-0.10
2019-01-04T20:47:46.985Z,-0.10
2019-01-04T20:50:35.683Z,0.00
2019-01-04T20:53:39.711Z,0.00
2019-01-04T20:56:28.792Z,-0.10
2019-01-04T20:59:26.680Z,-0.20
2019-01-04T21:02:13.475Z,-0.20
2019-01-04T21:05:02.206Z,-0.20
2019-01-04T21:07:49.495Z,-0.30
2019-01-04T21:10:34.316Z,-0.40
2019-01-04T21:13:21.765Z,-0.50
2019-01-04T21:16:16.456Z,-0.50
2019-01-04T21:19:14.583Z,-0.40
2019-01-04T21:22:05.295Z,-0.60
2019-01-04T21:24:52.887Z,-0.70
2019-01-04T21:27:50.783Z,-0.80
2019-01-04T21:30:42.996Z,-0.80
2019-01-04T21:33:30.537Z,-0.80
2019-01-04T21:36:38.313Z,-0.80
2019-01-04T21:39:30.733Z,-0.80
2019-01-04T21:42:15.414Z,-0.80
2019-01-04T21:45:03.173Z,-0.80
2019-01-04T21:47:57.734Z,-0.80
2019-01-04T21:50:52.733Z,-0.80
2019-01-04T21:54:00.816Z,-0.70
2019-01-04T21:56:58.166Z,-0.70
2019-01-04T21:59:48.774Z,-0.70
2019-01-04T22:02:55.734Z,-0.50
2019-01-04T22:05:53.407Z,-0.40
2019-01-04T22:09:10.314Z,-0.40
2019-01-04T22:11:57.824Z,-0.30
2019-01-04T22:14:45.369Z,-0.40
2019-01-04T22:17:49.197Z,-0.60
2019-01-04T22:20:36.615Z,-0.60
2019-01-04T22:23:22.411Z,-0.60
2019-01-04T22:26:09.691Z,-0.50
2019-01-04T22:29:04.227Z,-0.60
2019-01-04T22:32:05.026Z,-0.60
2019-01-04T22:35:05.715Z,-0.50
2019-01-04T22:38:12.787Z,-0.50
2019-01-04T22:40:59.967Z,-0.70
2019-01-04T22:43:49.030Z,-0.80
2019-01-04T22:46:36.476Z,-0.70
2019-01-04T22:49:23.866Z,-0.60
2019-01-04T22:52:18.341Z,-0.60
2019-01-04T22:55:09.816Z,-0.70
2019-01-04T22:57:57.339Z,-0.90
2019-01-04T23:00:47.427Z,-1.00
2019-01-04T23:03:51.415Z,-1.10
2019-01-04T23:06:38.817Z,-1.30
2019-01-04T23:09:27.110Z,-1.20
2019-01-04T23:12:18.719Z,-1.10
2019-01-04T23:15:10.439Z,-0.80
2019-01-04T23:18:04.883Z,-0.60
2019-01-04T23:20:52.191Z,-0.50
2019-01-04T23:23:40.952Z,-0.70
2019-01-04T23:26:41.810Z,-0.80
2019-01-04T23:29:29.274Z,-0.90
2019-01-04T23:32:30.931Z,-0.90
2019-01-04T23:35:18.501Z,-0.90
2019-01-04T23:38:06.503Z,-1.00
2019-01-04T23:40:53.822Z,-1.00
2019-01-04T23:43:45.518Z,-0.90
2019-01-04T23:46:32.820Z,-0.90
2019-01-04T23:49:36.867Z,-1.00
2019-01-04T23:52:32.568Z,-1.00
2019-01-04T23:55:27.198Z,-1.00
2019-01-04T23:58:14.561Z,-1.10
